Time;durP1;ratioP1;P1;durP2;ratioP2;P2;SDS_P1;SDS_P2;PMS_P1;PMS_P2;Temp;Humidity;BMP_temperature;BMP_pressure;BME280_temperature;BME280_humidity;BME280_pressure;Samples;Min_cycle;Max_cycle;Signal;HPM_P1;HPM_P2
2023/05/21 00:01:49;;;;;;;11.48;9.88;;;16.90;73.20;;;;;;5003067;28;20494;-63
2023/05/21 00:04:16;;;;;;;12.10;10.20;;;16.90;74.20;;;;;;5004048;28;20037;-63
2023/05/21 00:06:42;;;;;;;12.40;9.80;;;16.80;73.60;;;;;;5007440;28;20121;-63
2023/05/21 00:09:07;;;;;;;10.80;9.70;;;16.70;73.70;;;;;;5005366;28;20059;-63
2023/05/21 00:11:33;;;;;;;11.77;9.52;;;16.70;73.90;;;;;;5007142;28;20041;-62
2023/05/21 00:13:58;;;;;;;13.07;9.57;;;16.70;74.00;;;;;;5016448;28;20056;-63
2023/05/21 00:16:24;;;;;;;10.80;9.43;;;16.60;74.00;;;;;;5014564;28;20049;-63
2023/05/21 00:18:53;;;;;;;10.10;9.10;;;16.60;74.00;;;;;;5015136;28;20072;-63
2023/05/21 00:21:21;;;;;;;13.55;9.70;;;16.50;74.00;;;;;;5010460;28;20103;-61
2023/05/21 00:23:48;;;;;;;10.57;8.90;;;16.50;74.20;;;;;;5005896;28;20030;-61
2023/05/21 00:26:14;;;;;;;11.55;9.70;;;16.50;74.30;;;;;;5007299;28;20097;-63
2023/05/21 00:28:40;;;;;;;10.93;8.80;;;16.40;74.40;;;;;;5004160;28;20032;-62
2023/05/21 00:31:05;;;;;;;10.45;9.18;;;16.40;74.60;;;;;;5008667;28;20498;-62
2023/05/21 00:33:31;;;;;;;11.00;8.98;;;16.30;74.40;;;;;;5005681;28;20534;-63
2023/05/21 00:35:56;;;;;;;12.40;9.70;;;16.30;74.60;;;;;;5006177;28;20429;-62
2023/05/21 00:38:23;;;;;;;12.48;9.68;;;16.30;74.70;;;;;;5005001;28;20125;-63
2023/05/21 00:40:49;;;;;;;13.18;9.90;;;16.30;74.90;;;;;;5004277;28;20037;-61
2023/05/21 00:43:14;;;;;;;12.43;10.35;;;16.20;75.00;;;;;;5005819;28;20448;-62
2023/05/21 00:45:45;;;;;;;13.90;9.98;;;16.20;75.30;;;;;;5007088;28;20271;-62
2023/05/21 00:48:12;;;;;;;13.05;10.25;;;16.20;75.40;;;;;;5002595;28;20048;-62
2023/05/21 00:50:38;;;;;;;14.35;10.32;;;16.20;75.40;;;;;;5003558;28;20034;-61
2023/05/21 00:53:08;;;;;;;12.77;10.55;;;16.10;75.40;;;;;;5004781;28;20073;-62
2023/05/21 00:55:35;;;;;;;12.77;10.95;;;16.10;75.70;;;;;;5005536;28;20037;-62
2023/05/21 00:58:03;;;;;;;12.52;10.70;;;16.00;75.70;;;;;;5007085;28;20049;-62
2023/05/21 01:00:33;;;;;;;13.55;11.02;;;16.00;76.00;;;;;;5002580;28;20037;-62
2023/05/21 01:02:59;;;;;;;13.23;10.80;;;15.90;76.10;;;;;;5002256;28;20405;-63
2023/05/21 01:05:26;;;;;;;14.75;11.02;;;15.90;76.20;;;;;;5005228;28;20033;-62
2023/05/21 01:07:51;;;;;;;12.88;11.25;;;15.90;76.30;;;;;;5003607;28;20044;-62
2023/05/21 01:10:17;;;;;;;15.38;11.55;;;15.80;76.50;;;;;;5004166;28;20401;-62
2023/05/21 01:12:44;;;;;;;13.65;10.95;;;15.80;76.50;;;;;;5007094;28;20492;-62
2023/05/21 01:15:10;;;;;;;14.75;11.32;;;15.80;76.50;;;;;;5008441;28;20128;-63
2023/05/21 01:17:37;;;;;;;13.00;11.05;;;15.70;76.60;;;;;;5010078;28;20034;-63
2023/05/21 01:20:09;;;;;;;14.48;10.55;;;15.70;76.80;;;;;;5009378;28;20096;-62
2023/05/21 01:22:35;;;;;;;12.57;10.80;;;15.70;77.00;;;;;;5009344;28;20444;-62
2023/05/21 01:25:02;;;;;;;13.40;11.18;;;15.70;77.00;;;;;;5007140;28;20053;-62
2023/05/21 01:27:28;;;;;;;16.83;11.77;;;15.60;77.00;;;;;;5007167;28;20453;-62
2023/05/21 01:29:54;;;;;;;14.25;10.77;;;15.60;77.00;;;;;;5009214;28;20037;-62
2023/05/21 01:32:32;;;;;;;12.50;10.93;;;15.60;77.10;;;;;;5008848;28;20461;-62
2023/05/21 01:35:13;;;;;;;12.68;10.43;;;15.50;77.50;;;;;;5006941;28;20065;-63
2023/05/21 01:37:57;;;;;;;13.38;9.85;;;15.50;77.30;;;;;;5007438;28;20089;-62
2023/05/21 01:40:38;;;;;;;12.70;10.05;;;15.50;78.00;;;;;;5007852;28;20033;-61
2023/05/21 01:43:05;;;;;;;11.60;9.80;;;15.40;77.30;;;;;;5008521;28;20035;-62
2023/05/21 01:45:33;;;;;;;13.32;9.88;;;15.30;77.20;;;;;;5005771;28;20132;-62
2023/05/21 01:47:59;;;;;;;12.23;9.82;;;15.30;77.30;;;;;;5008416;28;20060;-62
2023/05/21 01:50:25;;;;;;;11.48;9.93;;;15.30;77.50;;;;;;5007619;28;20120;-62
2023/05/21 01:52:52;;;;;;;13.32;10.60;;;15.20;77.60;;;;;;5005345;28;20042;-63
2023/05/21 01:55:23;;;;;;;11.32;10.02;;;15.20;77.90;;;;;;5008950;28;20033;-62
2023/05/21 01:57:52;;;;;;;13.70;9.80;;;15.10;77.80;;;;;;5016691;28;20406;-62
2023/05/21 02:00:19;;;;;;;11.30;9.50;;;15.00;77.80;;;;;;5009177;28;20409;-62
2023/05/21 02:02:45;;;;;;;12.38;9.63;;;15.00;78.00;;;;;;5008186;28;22290;-63
2023/05/21 02:05:11;;;;;;;12.10;9.45;;;15.00;78.00;;;;;;5009505;28;20151;-63
2023/05/21 02:07:36;;;;;;;13.10;10.70;;;15.00;78.00;;;;;;5009838;28;20255;-63
2023/05/21 02:10:02;;;;;;;12.82;10.05;;;15.00;78.20;;;;;;5006298;28;20672;-63
2023/05/21 02:12:28;;;;;;;12.75;10.10;;;14.90;78.30;;;;;;5009916;28;20053;-62
2023/05/21 02:14:55;;;;;;;11.25;10.10;;;14.90;78.30;;;;;;5012762;28;20108;-61
2023/05/21 02:17:21;;;;;;;14.00;10.27;;;14.90;78.40;;;;;;5014281;28;20049;-63
2023/05/21 02:19:47;;;;;;;11.02;9.90;;;14.80;78.40;;;;;;5013976;28;20030;-63
2023/05/21 02:22:12;;;;;;;10.23;9.15;;;14.80;78.40;;;;;;5012619;28;20583;-62
2023/05/21 02:24:38;;;;;;;11.00;9.85;;;14.80;78.50;;;;;;5012379;28;20037;-62
2023/05/21 02:27:05;;;;;;;11.55;9.85;;;14.80;78.60;;;;;;5010012;28;20159;-62
2023/05/21 02:29:31;;;;;;;11.30;10.07;;;14.80;78.70;;;;;;5008054;28;20038;-62
2023/05/21 02:31:56;;;;;;;12.23;10.05;;;14.80;78.70;;;;;;5005971;28;20269;-62
2023/05/21 02:34:23;;;;;;;11.80;10.52;;;14.80;78.80;;;;;;5010994;28;20045;-62
2023/05/21 02:36:52;;;;;;;13.35;10.52;;;14.80;78.70;;;;;;5007663;28;20097;-62
2023/05/21 02:39:18;;;;;;;12.18;10.60;;;14.70;78.80;;;;;;5012469;28;20053;-62
2023/05/21 02:41:45;;;;;;;11.30;10.15;;;14.70;79.00;;;;;;5014432;28;20033;-62
2023/05/21 02:44:11;;;;;;;17.30;10.57;;;14.70;79.20;;;;;;5008649;28;20321;-62
2023/05/21 02:46:36;;;;;;;12.25;10.38;;;14.60;79.20;;;;;;5006681;28;20052;-62
2023/05/21 02:49:02;;;;;;;12.85;10.52;;;14.60;79.30;;;;;;5008091;28;20561;-61
2023/05/21 02:51:28;;;;;;;12.30;10.10;;;14.60;79.30;;;;;;5007762;28;20194;-62
2023/05/21 02:53:53;;;;;;;12.55;9.70;;;14.50;79.30;;;;;;5011429;28;20730;-61
2023/05/21 02:56:19;;;;;;;12.95;9.98;;;14.60;79.30;;;;;;5012904;28;20045;-62
2023/05/21 02:58:45;;;;;;;10.93;9.75;;;14.50;80.10;;;;;;5008554;28;20033;-62
2023/05/21 03:01:11;;;;;;;11.90;10.20;;;14.50;79.30;;;;;;5008458;28;20532;-62
2023/05/21 03:03:36;;;;;;;12.30;9.90;;;14.60;79.50;;;;;;5012208;28;20373;-63
2023/05/21 03:06:02;;;;;;;12.18;10.60;;;14.50;79.40;;;;;;5008370;28;20060;-62
2023/05/21 03:08:27;;;;;;;11.27;10.10;;;14.50;79.40;;;;;;5010080;28;20498;-62
2023/05/21 03:10:54;;;;;;;11.93;10.15;;;14.40;79.30;;;;;;5004012;28;20117;-62
2023/05/21 03:13:20;;;;;;;12.52;10.95;;;14.40;79.40;;;;;;5006190;28;20472;-62
2023/05/21 03:15:45;;;;;;;11.80;10.52;;;14.40;79.80;;;;;;5006921;28;20053;-62
2023/05/21 03:18:11;;;;;;;12.65;11.23;;;14.30;79.80;;;;;;5007789;28;20092;-62
2023/05/21 03:20:42;;;;;;;13.15;10.82;;;14.30;80.00;;;;;;5010025;28;20133;-61
2023/05/21 03:23:08;;;;;;;11.90;10.52;;;14.30;80.10;;;;;;5008847;28;20046;-62
2023/05/21 03:25:35;;;;;;;12.07;10.63;;;14.20;80.20;;;;;;5007321;28;20038;-61
2023/05/21 03:28:01;;;;;;;12.75;11.13;;;14.20;80.40;;;;;;5007482;28;20572;-62
2023/05/21 03:30:26;;;;;;;17.00;12.27;;;14.10;80.50;;;;;;5007348;28;20042;-62
2023/05/21 03:32:52;;;;;;;14.98;11.35;;;14.10;80.90;;;;;;5009478;28;20065;-62
2023/05/21 03:35:18;;;;;;;14.05;10.85;;;14.10;81.30;;;;;;5012763;28;20125;-61
2023/05/21 03:37:43;;;;;;;12.77;11.43;;;14.10;81.30;;;;;;5005506;28;20598;-61
2023/05/21 03:40:09;;;;;;;14.45;11.43;;;14.10;81.30;;;;;;5009142;28;20103;-62
2023/05/21 03:42:35;;;;;;;13.35;11.68;;;14.10;81.30;;;;;;5010493;28;20030;-62
2023/05/21 03:45:01;;;;;;;14.60;12.13;;;14.10;81.30;;;;;;5004887;28;20321;-62
2023/05/21 03:47:27;;;;;;;13.52;11.65;;;14.10;81.50;;;;;;5007421;28;20084;-62
2023/05/21 03:49:52;;;;;;;16.08;11.63;;;14.10;81.60;;;;;;5003004;28;20506;-62
2023/05/21 03:52:18;;;;;;;12.13;10.82;;;14.00;81.60;;;;;;5004694;28;20042;-61
2023/05/21 03:54:45;;;;;;;12.95;10.90;;;14.00;81.70;;;;;;5004635;28;20069;-62
2023/05/21 03:57:10;;;;;;;13.32;11.27;;;14.10;81.80;;;;;;5007327;28;20175;-62
2023/05/21 03:59:36;;;;;;;13.75;10.90;;;14.10;81.80;;;;;;5010875;28;20107;-62
2023/05/21 04:02:02;;;;;;;15.45;11.90;;;14.10;81.70;;;;;;5004245;28;20192;-62
2023/05/21 04:04:28;;;;;;;14.07;11.57;;;14.10;81.70;;;;;;5008235;28;20413;-62
2023/05/21 04:06:54;;;;;;;13.18;11.45;;;14.10;81.70;;;;;;5009280;28;20149;-61
2023/05/21 04:09:20;;;;;;;12.20;10.90;;;14.10;81.70;;;;;;5010661;28;20505;-62
2023/05/21 04:11:46;;;;;;;14.00;11.77;;;14.10;81.90;;;;;;5004609;28;20037;-62
2023/05/21 04:14:12;;;;;;;16.10;12.00;;;14.10;82.00;;;;;;5010598;28;20783;-62
2023/05/21 04:16:38;;;;;;;14.57;11.52;;;14.10;82.20;;;;;;5011414;28;20040;-62
2023/05/21 04:19:05;;;;;;;17.23;11.98;;;14.00;82.40;;;;;;5012238;28;20034;-62
2023/05/21 04:21:31;;;;;;;13.98;11.63;;;14.00;82.60;;;;;;5010933;28;20038;-62
2023/05/21 04:23:57;;;;;;;15.85;11.60;;;14.00;82.60;;;;;;5005890;28;20034;-62
2023/05/21 04:26:24;;;;;;;12.40;10.88;;;14.00;82.70;;;;;;5011522;28;20034;-62
2023/05/21 04:28:49;;;;;;;14.13;11.93;;;14.00;82.90;;;;;;5004802;28;20635;-62
2023/05/21 04:31:15;;;;;;;13.65;11.50;;;14.00;83.00;;;;;;5007842;28;20182;-62
2023/05/21 04:33:44;;;;;;;13.10;11.30;;;14.00;83.10;;;;;;5005071;28;20105;-62
2023/05/21 04:36:10;;;;;;;18.33;14.05;;;14.10;83.30;;;;;;5005394;28;20042;-62
2023/05/21 04:38:36;;;;;;;18.25;13.40;;;14.10;83.30;;;;;;5006583;28;20053;-62
2023/05/21 04:41:05;;;;;;;14.60;12.65;;;14.10;83.30;;;;;;5008733;28;20103;-62
2023/05/21 04:43:31;;;;;;;19.23;14.95;;;14.20;83.40;;;;;;5009801;28;20034;-62
2023/05/21 04:45:56;;;;;;;21.98;15.00;;;14.20;83.30;;;;;;5010746;28;20099;-62
2023/05/21 04:48:28;;;;;;;17.70;14.32;;;14.20;83.40;;;;;;5009938;28;20040;-62
2023/05/21 04:50:54;;;;;;;17.98;14.07;;;14.20;83.50;;;;;;5008854;28;20091;-62
2023/05/21 04:53:21;;;;;;;13.98;12.23;;;14.30;83.40;;;;;;5013060;28;20049;-62
2023/05/21 04:55:48;;;;;;;15.88;12.40;;;14.30;83.40;;;;;;5011244;28;20489;-62
2023/05/21 04:58:16;;;;;;;15.57;12.85;;;14.40;83.40;;;;;;5013872;28;20100;-62
2023/05/21 05:00:44;;;;;;;15.38;12.55;;;14.40;83.40;;;;;;5011121;28;20048;-62
2023/05/21 05:03:10;;;;;;;17.20;12.85;;;14.50;83.50;;;;;;5011542;28;20037;-62
2023/05/21 05:05:36;;;;;;;15.68;12.13;;;14.50;83.30;;;;;;5006395;28;20409;-62
2023/05/21 05:08:02;;;;;;;14.73;11.95;;;14.60;83.50;;;;;;5012109;28;20042;-62
2023/05/21 05:10:28;;;;;;;15.50;12.88;;;14.70;83.60;;;;;;5012852;28;20184;-62
2023/05/21 05:12:54;;;;;;;15.88;12.15;;;14.70;83.50;;;;;;5010641;28;20083;-62
2023/05/21 05:15:19;;;;;;;15.45;12.68;;;14.70;83.50;;;;;;5009201;28;20084;-62
2023/05/21 05:17:49;;;;;;;17.85;14.30;;;14.80;83.40;;;;;;5012369;28;20084;-62
2023/05/21 05:20:14;;;;;;;19.45;15.30;;;14.80;83.40;;;;;;5010188;28;20045;-62
2023/05/21 05:22:40;;;;;;;19.20;14.35;;;14.90;83.50;;;;;;5005888;28;20037;-62
2023/05/21 05:25:06;;;;;;;19.38;14.45;;;15.00;83.50;;;;;;5014862;28;20132;-62
2023/05/21 05:27:32;;;;;;;16.40;13.48;;;15.00;83.60;;;;;;5012440;28;20042;-63
2023/05/21 05:29:58;;;;;;;17.98;13.77;;;15.00;83.70;;;;;;5008057;28;20056;-61
2023/05/21 05:32:23;;;;;;;16.00;13.73;;;15.00;83.70;;;;;;5010402;28;20041;-62
2023/05/21 05:34:49;;;;;;;18.75;14.57;;;15.10;83.90;;;;;;5009820;28;20152;-62
2023/05/21 05:37:15;;;;;;;28.40;20.20;;;15.10;84.00;;;;;;5009931;28;20409;-62
2023/05/21 05:39:40;;;;;;;25.50;19.20;;;15.20;84.00;;;;;;5009623;28;20030;-63
2023/05/21 05:42:06;;;;;;;24.25;18.67;;;15.30;84.00;;;;;;5011147;28;20033;-63
2023/05/21 05:44:31;;;;;;;17.35;15.02;;;15.30;84.00;;;;;;5013275;28;20581;-63
2023/05/21 05:46:57;;;;;;;18.98;15.55;;;15.40;84.10;;;;;;5013597;28;20449;-63
2023/05/21 05:49:22;;;;;;;17.50;15.00;;;15.50;84.30;;;;;;5008167;28;20077;-62
2023/05/21 05:51:48;;;;;;;17.88;14.13;;;15.50;84.50;;;;;;5006703;28;20779;-63
2023/05/21 05:54:14;;;;;;;18.77;15.75;;;15.60;84.70;;;;;;5010012;28;20088;-62
2023/05/21 05:56:39;;;;;;;17.08;14.65;;;15.70;85.00;;;;;;5013033;28;20026;-62
2023/05/21 05:59:05;;;;;;;17.48;15.60;;;15.70;85.10;;;;;;5010611;28;20034;-62
2023/05/21 06:01:30;;;;;;;19.63;15.82;;;15.80;85.20;;;;;;5011373;28;20025;-63
2023/05/21 06:03:56;;;;;;;17.33;15.30;;;15.80;85.00;;;;;;4993499;28;20419;-63
2023/05/21 06:06:22;;;;;;;16.92;14.05;;;15.90;84.80;;;;;;4990241;28;20502;-63
2023/05/21 06:08:47;;;;;;;19.73;15.25;;;16.00;84.80;;;;;;4990643;28;20045;-63
2023/05/21 06:11:15;;;;;;;19.30;15.52;;;16.00;84.90;;;;;;4996981;28;20225;-63
2023/05/21 06:13:41;;;;;;;18.40;15.45;;;16.10;84.80;;;;;;5004997;28;20038;-63
2023/05/21 06:16:08;;;;;;;17.10;14.35;;;16.10;85.50;;;;;;5008289;28;20111;-63
2023/05/21 06:18:34;;;;;;;16.38;14.50;;;16.20;84.70;;;;;;5008263;28;20456;-62
2023/05/21 06:21:00;;;;;;;16.67;14.35;;;16.20;84.60;;;;;;5008513;28;20045;-63
2023/05/21 06:23:26;;;;;;;17.95;14.57;;;16.30;84.60;;;;;;4993886;28;20045;-63
2023/05/21 06:25:51;;;;;;;17.38;14.02;;;16.30;84.40;;;;;;4998890;28;20573;-63
2023/05/21 06:28:17;;;;;;;19.60;14.55;;;16.40;84.40;;;;;;4992812;28;20478;-63
2023/05/21 06:30:42;;;;;;;16.50;14.00;;;16.50;84.10;;;;;;4994752;28;20034;-63
2023/05/21 06:33:08;;;;;;;17.33;14.60;;;16.50;84.00;;;;;;4993460;28;20148;-63
2023/05/21 06:35:35;;;;;;;18.02;14.43;;;16.60;84.10;;;;;;4994589;28;20033;-62
2023/05/21 06:38:01;;;;;;;18.45;15.05;;;16.60;84.10;;;;;;4994822;28;20041;-63
2023/05/21 06:40:27;;;;;;;16.17;14.15;;;16.70;84.00;;;;;;4996311;28;20099;-63
2023/05/21 06:42:52;;;;;;;16.70;14.13;;;16.70;83.90;;;;;;4996254;28;20037;-63
2023/05/21 06:45:19;;;;;;;17.13;14.68;;;16.80;83.70;;;;;;4990129;28;20785;-63
2023/05/21 06:47:44;;;;;;;15.93;13.98;;;16.80;83.60;;;;;;4990926;28;20052;-63
2023/05/21 06:50:10;;;;;;;19.73;14.88;;;16.90;83.60;;;;;;4991508;28;20038;-63
2023/05/21 06:52:36;;;;;;;17.75;13.90;;;16.90;83.60;;;;;;4993884;28;20266;-63
2023/05/21 06:55:01;;;;;;;16.98;14.35;;;17.00;83.40;;;;;;4996227;28;20551;-63
2023/05/21 06:57:27;;;;;;;15.20;13.60;;;17.00;83.30;;;;;;4999172;28;20038;-63
2023/05/21 06:59:52;;;;;;;18.17;14.15;;;17.10;83.80;;;;;;4990172;28;20655;-63
2023/05/21 07:02:18;;;;;;;18.25;14.45;;;17.20;82.90;;;;;;4989954;28;20033;-63
2023/05/21 07:04:43;;;;;;;16.85;13.75;;;17.20;82.80;;;;;;4994312;28;20104;-63
2023/05/21 07:07:09;;;;;;;16.52;14.18;;;17.30;82.70;;;;;;4996480;28;20041;-63
2023/05/21 07:09:34;;;;;;;15.57;13.98;;;17.30;82.70;;;;;;4996141;28;20128;-63
2023/05/21 07:12:00;;;;;;;16.92;14.55;;;17.40;82.70;;;;;;4998228;28;20065;-63
2023/05/21 07:14:26;;;;;;;16.48;14.35;;;17.50;82.70;;;;;;4992008;28;21290;-63
2023/05/21 07:16:52;;;;;;;17.30;14.40;;;17.50;82.60;;;;;;4995807;28;20048;-63
2023/05/21 07:19:18;;;;;;;17.38;14.13;;;17.60;82.60;;;;;;4994150;28;20037;-62
2023/05/21 07:21:43;;;;;;;15.38;13.73;;;17.60;82.60;;;;;;4989881;28;20502;-62
2023/05/21 07:24:09;;;;;;;16.95;14.10;;;17.70;82.50;;;;;;4993292;28;20060;-62
2023/05/21 07:26:34;;;;;;;16.27;13.88;;;17.70;82.20;;;;;;4998580;28;20052;-62
2023/05/21 07:29:00;;;;;;;15.75;14.00;;;17.80;82.00;;;;;;4998420;28;20108;-63
2023/05/21 07:31:26;;;;;;;18.10;14.43;;;17.90;81.90;;;;;;4994112;28;20041;-62
2023/05/21 07:33:51;;;;;;;15.23;13.07;;;18.00;81.80;;;;;;4997466;28;20413;-62
2023/05/21 07:36:17;;;;;;;15.88;14.05;;;18.00;81.60;;;;;;5000493;28;20034;-62
2023/05/21 07:38:43;;;;;;;16.08;14.02;;;18.10;81.50;;;;;;4988752;28;21153;-62
2023/05/21 07:41:08;;;;;;;15.80;14.00;;;18.20;81.50;;;;;;4991946;28;20237;-63
2023/05/21 07:43:35;;;;;;;16.45;14.05;;;18.20;81.30;;;;;;4998188;28;20495;-62
2023/05/21 07:46:01;;;;;;;17.33;14.43;;;18.30;81.20;;;;;;4988181;28;20044;-62
2023/05/21 07:48:26;;;;;;;17.70;15.07;;;18.40;81.20;;;;;;4992181;28;20046;-62
2023/05/21 07:50:52;;;;;;;17.00;14.13;;;18.50;80.80;;;;;;4991098;28;20494;-62
2023/05/21 07:53:18;;;;;;;16.55;14.48;;;18.50;80.30;;;;;;4991662;28;20095;-62
2023/05/21 07:55:46;;;;;;;16.17;14.15;;;18.60;80.10;;;;;;4994632;28;20049;-62
2023/05/21 07:58:18;;;;;;;16.65;14.85;;;18.60;80.30;;;;;;5000459;28;20046;-62
2023/05/21 08:00:46;;;;;;;16.73;14.77;;;18.60;80.50;;;;;;4989550;28;20030;-62
2023/05/21 08:03:15;;;;;;;15.88;14.18;;;18.70;80.60;;;;;;4998761;28;20049;-62
2023/05/21 08:05:49;;;;;;;15.65;13.80;;;18.80;80.30;;;;;;5000821;28;20040;-63
2023/05/21 08:08:18;;;;;;;17.63;14.68;;;18.80;80.10;;;;;;5007719;28;20030;-62
2023/05/21 08:10:45;;;;;;;18.13;14.63;;;18.80;80.30;;;;;;5004418;28;20100;-64
2023/05/21 08:13:11;;;;;;;15.45;13.82;;;18.90;80.30;;;;;;5009152;28;20046;-63
2023/05/21 08:15:37;;;;;;;16.02;14.32;;;19.00;80.30;;;;;;5001273;28;20042;-63
2023/05/21 08:18:03;;;;;;;17.45;14.48;;;19.10;80.10;;;;;;5013052;28;20061;-63
2023/05/21 08:20:30;;;;;;;17.63;13.93;;;19.10;79.80;;;;;;5010988;28;20033;-63
2023/05/21 08:22:56;;;;;;;16.85;14.10;;;19.20;79.80;;;;;;5011040;28;20528;-63
2023/05/21 08:25:22;;;;;;;16.10;13.85;;;19.20;79.80;;;;;;5016565;28;20037;-62
2023/05/21 08:27:47;;;;;;;16.30;13.98;;;19.20;79.80;;;;;;5016728;28;20037;-62
2023/05/21 08:30:13;;;;;;;16.02;14.32;;;19.30;79.80;;;;;;5015224;28;20045;-62
2023/05/21 08:32:39;;;;;;;16.30;14.05;;;19.40;79.80;;;;;;5015967;28;20045;-62
2023/05/21 08:35:06;;;;;;;17.10;14.07;;;19.40;79.30;;;;;;5015101;28;20033;-63
2023/05/21 08:37:31;;;;;;;16.08;13.05;;;19.50;79.30;;;;;;5010389;28;20050;-63
2023/05/21 08:39:57;;;;;;;17.50;13.98;;;19.60;79.10;;;;;;5012138;28;20037;-63
2023/05/21 08:42:43;;;;;;;15.77;13.60;;;19.60;78.50;;;;;;5013860;28;20041;-61
2023/05/21 08:45:11;;;;;;;14.95;13.20;;;19.70;77.90;;;;;;5010190;28;20054;-63
2023/05/21 08:47:38;;;;;;;15.05;13.45;;;19.80;77.90;;;;;;5017639;28;20033;-63
2023/05/21 08:50:04;;;;;;;16.85;14.07;;;19.90;77.70;;;;;;5012431;28;20042;-63
2023/05/21 08:52:31;;;;;;;16.90;13.55;;;19.90;77.50;;;;;;5012685;28;20058;-63
2023/05/21 08:54:57;;;;;;;18.52;14.32;;;20.00;76.80;;;;;;5016831;28;20092;-63
2023/05/21 08:57:24;;;;;;;17.00;15.20;;;20.00;76.30;;;;;;5012916;28;20042;-63
2023/05/21 08:59:50;;;;;;;15.90;13.73;;;20.10;75.80;;;;;;5013524;28;20034;-61
2023/05/21 09:02:17;;;;;;;17.55;15.30;;;20.10;76.00;;;;;;5014204;28;20030;-63
2023/05/21 09:04:48;;;;;;;17.60;14.95;;;20.20;75.50;;;;;;5016692;28;20061;-63
2023/05/21 09:07:14;;;;;;;15.93;13.73;;;20.20;75.40;;;;;;5018505;28;20066;-63
2023/05/21 09:09:51;;;;;;;17.65;14.13;;;20.20;75.30;;;;;;5009738;28;20117;-63
2023/05/21 09:12:18;;;;;;;15.07;13.50;;;20.20;74.60;;;;;;5013557;28;20045;-62
2023/05/21 09:14:46;;;;;;;15.65;13.43;;;20.20;74.70;;;;;;5018086;28;20034;-63
2023/05/21 09:17:14;;;;;;;15.32;13.43;;;20.30;75.60;;;;;;5017006;28;20497;-63
2023/05/21 09:20:07;;;;;;;15.93;14.18;;;20.30;74.30;;;;;;5018095;28;20133;-63
2023/05/21 09:22:32;;;;;;;14.52;12.95;;;20.40;73.90;;;;;;5011176;28;20092;-63
2023/05/21 09:24:58;;;;;;;17.98;13.57;;;20.40;74.20;;;;;;5015172;28;20050;-63
2023/05/21 09:27:23;;;;;;;14.88;13.13;;;20.50;73.80;;;;;;5017771;28;20038;-63
2023/05/21 09:29:49;;;;;;;14.88;13.20;;;20.50;73.80;;;;;;5017956;28;20525;-63
2023/05/21 09:32:16;;;;;;;18.55;14.18;;;20.50;73.50;;;;;;5016347;28;20030;-63
2023/05/21 09:34:42;;;;;;;17.38;13.60;;;20.50;73.30;;;;;;5014207;28;20113;-64
2023/05/21 09:37:08;;;;;;;17.65;13.20;;;20.60;73.30;;;;;;5016131;28;20114;-63
2023/05/21 09:39:34;;;;;;;14.35;12.73;;;20.60;73.50;;;;;;5018401;28;20026;-63
2023/05/21 09:42:01;;;;;;;17.77;13.23;;;20.70;73.30;;;;;;5017768;28;20033;-63
2023/05/21 09:44:26;;;;;;;14.85;12.43;;;20.80;73.20;;;;;;5015956;28;20698;-63
2023/05/21 09:46:57;;;;;;;18.27;13.25;;;20.80;73.00;;;;;;5009370;28;20042;-63
2023/05/21 09:49:25;;;;;;;14.75;12.93;;;20.90;72.50;;;;;;5015512;28;20034;-61
2023/05/21 09:51:55;;;;;;;14.93;13.32;;;20.90;72.60;;;;;;5010972;28;20029;-63
2023/05/21 09:54:29;;;;;;;16.00;13.77;;;21.00;72.10;;;;;;5019157;28;20045;-64
2023/05/21 09:56:55;;;;;;;16.58;13.60;;;21.10;71.70;;;;;;5018868;28;20045;-63
2023/05/21 09:59:21;;;;;;;15.52;13.85;;;21.10;71.70;;;;;;5019085;28;20046;-64
2023/05/21 10:01:50;;;;;;;15.38;12.90;;;21.20;71.40;;;;;;5019534;28;20401;-63
2023/05/21 10:04:16;;;;;;;14.98;13.13;;;21.20;71.00;;;;;;5019334;28;20044;-63
2023/05/21 10:06:43;;;;;;;14.10;12.60;;;21.20;70.80;;;;;;5015544;28;20061;-63
2023/05/21 10:09:10;;;;;;;14.23;12.73;;;21.30;70.40;;;;;;5017377;28;20037;-63
2023/05/21 10:11:36;;;;;;;15.38;11.35;;;21.20;70.70;;;;;;5011959;28;20130;-63
2023/05/21 10:14:23;;;;;;;13.52;11.77;;;21.30;71.30;;;;;;5016166;28;20128;-63
2023/05/21 10:16:53;;;;;;;14.45;12.95;;;21.30;70.80;;;;;;5015204;28;20045;-63
2023/05/21 10:19:20;;;;;;;13.85;12.50;;;21.30;71.00;;;;;;5016487;28;20041;-63
2023/05/21 10:21:46;;;;;;;15.57;12.82;;;21.40;71.30;;;;;;5013513;28;20046;-63
2023/05/21 10:24:13;;;;;;;15.70;13.38;;;21.40;71.10;;;;;;5015486;28;20033;-63
2023/05/21 10:26:40;;;;;;;15.40;12.77;;;21.50;70.70;;;;;;5016273;28;20516;-63
2023/05/21 10:29:07;;;;;;;17.48;12.85;;;21.50;70.40;;;;;;5015696;28;20045;-63
2023/05/21 10:31:34;;;;;;;14.10;12.35;;;21.60;69.90;;;;;;5015627;28;20409;-63
2023/05/21 10:34:02;;;;;;;13.90;12.38;;;21.60;70.20;;;;;;5014914;28;20052;-63
2023/05/21 10:36:32;;;;;;;13.77;11.52;;;21.70;70.10;;;;;;5015724;28;20429;-64
2023/05/21 10:38:59;;;;;;;15.50;12.68;;;21.80;70.20;;;;;;5013926;28;20073;-63
2023/05/21 10:41:26;;;;;;;13.73;12.13;;;21.90;70.00;;;;;;5014716;28;20042;-63
2023/05/21 10:44:11;;;;;;;14.80;12.98;;;21.90;69.70;;;;;;5015460;28;20038;-63
2023/05/21 10:46:47;;;;;;;13.20;11.85;;;22.00;68.80;;;;;;5014869;28;20128;-63
2023/05/21 10:49:25;;;;;;;14.07;11.68;;;22.00;68.80;;;;;;5016897;28;20536;-63
2023/05/21 10:51:54;;;;;;;12.25;11.02;;;22.10;68.80;;;;;;5014184;28;20037;-63
2023/05/21 10:54:53;;;;;;;16.35;11.50;;;22.20;69.70;;;;;;5016150;28;20041;-62
2023/05/21 10:57:40;;;;;;;13.60;12.02;;;22.20;68.50;;;;;;5009851;28;20088;-62
2023/05/21 11:00:08;;;;;;;13.30;12.00;;;22.30;68.80;;;;;;5016727;28;20046;-63
2023/05/21 11:02:34;;;;;;;13.45;12.00;;;22.40;68.50;;;;;;5015064;28;20030;-64
2023/05/21 11:05:00;;;;;;;12.73;11.43;;;22.40;68.10;;;;;;5011028;28;20092;-64
2023/05/21 11:07:52;;;;;;;14.55;11.40;;;22.50;68.20;;;;;;5013813;28;20433;-64
2023/05/21 11:10:36;;;;;;;13.77;11.15;;;22.50;66.20;;;;;;5014389;28;20497;-63
2023/05/21 11:13:12;;;;;;;12.00;10.75;;;22.50;66.60;;;;;;5014919;28;20053;-64
2023/05/21 11:15:56;;;;;;;13.23;10.77;;;22.60;65.70;;;;;;5013324;28;20088;-63
2023/05/21 11:18:34;;;;;;;11.05;9.60;;;22.60;65.90;;;;;;5014751;28;20050;-62
2023/05/21 11:21:10;;;;;;;11.20;9.75;;;22.70;67.30;;;;;;5014425;28;20077;-64
2023/05/21 11:23:55;;;;;;;11.18;10.02;;;22.70;66.70;;;;;;5013344;28;20034;-63
2023/05/21 11:26:25;;;;;;;;;;;22.80;65.60;;;;;;5014954;28;20046;-64
2023/05/21 11:29:07;;;;;;;9.32;8.38;;;22.90;66.40;;;;;;5014538;28;20372;-64
2023/05/21 11:31:37;;;;;;;10.70;9.27;;;22.90;66.00;;;;;;5012073;28;20517;-63
2023/05/21 11:34:18;;;;;;;10.50;9.40;;;23.00;66.20;;;;;;5015411;28;20502;-63
2023/05/21 11:36:45;;;;;;;10.68;9.27;;;23.10;65.10;;;;;;5012489;28;20092;-64
2023/05/21 11:39:16;;;;;;;11.13;9.80;;;23.10;65.90;;;;;;5014966;28;20041;-63
2023/05/21 11:41:58;;;;;;;11.18;10.07;;;23.10;65.00;;;;;;5013492;28;20545;-63
2023/05/21 11:44:50;;;;;;;10.38;9.30;;;23.20;64.60;;;;;;5013016;28;20556;-63
2023/05/21 11:47:17;;;;;;;12.88;9.60;;;23.20;64.80;;;;;;5011240;28;20034;-63
2023/05/21 11:49:43;;;;;;;11.40;9.75;;;23.20;65.10;;;;;;5013186;28;20030;-63
2023/05/21 11:52:10;;;;;;;13.85;10.13;;;23.20;66.30;;;;;;5010397;28;20057;-63
2023/05/21 11:54:45;;;;;;;10.35;9.25;;;23.20;64.50;;;;;;5011733;28;20045;-63
2023/05/21 11:57:11;;;;;;;12.38;9.45;;;23.20;64.80;;;;;;5015738;28;20538;-64
2023/05/21 11:59:37;;;;;;;11.07;9.95;;;23.20;64.90;;;;;;5014994;28;20030;-63
2023/05/21 12:02:04;;;;;;;11.68;9.27;;;23.20;64.90;;;;;;5014549;28;20042;-63
2023/05/21 12:04:30;;;;;;;10.82;9.73;;;23.20;64.80;;;;;;5013641;28;20033;-63
2023/05/21 12:06:57;;;;;;;10.40;9.38;;;23.20;65.50;;;;;;5015896;28;20508;-63
2023/05/21 12:09:23;;;;;;;11.02;8.93;;;23.30;64.60;;;;;;5013528;28;20111;-63
2023/05/21 12:11:50;;;;;;;11.07;9.32;;;23.40;64.60;;;;;;5014162;28;20030;-63
2023/05/21 12:14:16;;;;;;;9.48;8.57;;;23.40;63.90;;;;;;5012170;28;20055;-63
2023/05/21 12:16:42;;;;;;;10.75;9.27;;;23.40;64.60;;;;;;5011179;28;20083;-63
2023/05/21 12:19:08;;;;;;;9.07;8.18;;;23.50;63.80;;;;;;5013554;28;20081;-63
2023/05/21 12:21:34;;;;;;;10.30;9.18;;;23.50;64.00;;;;;;5015437;28;20041;-63
2023/05/21 12:24:00;;;;;;;11.00;8.85;;;23.60;63.60;;;;;;5011254;28;20037;-63
2023/05/21 12:26:26;;;;;;;9.60;8.60;;;23.60;62.60;;;;;;5012402;28;20050;-64
2023/05/21 12:28:55;;;;;;;9.48;8.48;;;23.60;62.90;;;;;;5012282;28;20034;-64
2023/05/21 12:31:22;;;;;;;9.00;8.10;;;23.70;63.10;;;;;;5013427;28;20046;-64
2023/05/21 12:33:51;;;;;;;9.05;8.05;;;23.70;64.00;;;;;;5016849;28;20037;-63